createdAt,value
2018-06-18T00:02:26.292Z,15.45
2018-06-18T00:04:56.029Z,15.48
2018-06-18T00:07:25.769Z,15.44
2018-06-18T00:09:55.411Z,15.36
2018-06-18T00:12:24.980Z,15.33
2018-06-18T00:14:54.443Z,15.32
2018-06-18T00:17:24.251Z,15.35
2018-06-18T00:19:53.876Z,15.36
2018-06-18T00:22:23.489Z,15.37
2018-06-18T00:24:52.930Z,15.36
2018-06-18T00:27:22.528Z,15.37
2018-06-18T00:29:52.139Z,15.44
2018-06-18T00:32:22.190Z,15.45
2018-06-18T00:34:51.868Z,15.42
2018-06-18T00:37:21.660Z,15.46
2018-06-18T00:39:51.308Z,15.46
2018-06-18T00:42:20.855Z,15.37
2018-06-18T00:44:50.623Z,15.40
2018-06-18T00:47:20.237Z,15.47
2018-06-18T00:49:49.946Z,15.50
2018-06-18T00:52:19.931Z,15.52
2018-06-18T00:54:49.383Z,15.49
2018-06-18T00:57:18.924Z,15.46
2018-06-18T00:59:48.838Z,15.49
2018-06-18T01:02:18.302Z,15.45
2018-06-18T01:04:48.219Z,15.49
2018-06-18T01:07:18.051Z,15.51
2018-06-18T01:09:47.696Z,15.50
2018-06-18T01:12:17.384Z,15.44
2018-06-18T01:14:47.095Z,15.40
2018-06-18T01:17:16.576Z,15.41
2018-06-18T01:19:46.481Z,15.44
2018-06-18T01:22:16.155Z,15.48
2018-06-18T01:24:50.410Z,15.51
2018-06-18T01:27:19.992Z,15.47
2018-06-18T01:29:49.614Z,15.49
2018-06-18T01:32:19.619Z,15.48
2018-06-18T01:34:49.159Z,15.35
2018-06-18T01:37:18.712Z,15.36
2018-06-18T01:39:48.370Z,15.38
2018-06-18T01:42:18.152Z,15.31
2018-06-18T01:44:47.410Z,15.34
2018-06-18T01:47:17.328Z,15.39
2018-06-18T01:49:46.994Z,15.41
2018-06-18T01:52:17.090Z,15.44
2018-06-18T01:54:47.154Z,15.40
2018-06-18T01:57:16.918Z,15.40
2018-06-18T01:59:46.327Z,15.40
2018-06-18T02:02:15.934Z,15.38
2018-06-18T02:04:45.600Z,15.42
2018-06-18T02:07:14.868Z,15.46
2018-06-18T02:09:44.490Z,15.46
2018-06-18T02:12:14.106Z,15.30
2018-06-18T02:14:43.424Z,15.32
2018-06-18T02:17:13.062Z,15.33
2018-06-18T02:19:42.706Z,15.37
2018-06-18T02:22:12.127Z,15.37
2018-06-18T02:24:41.829Z,15.45
2018-06-18T02:27:17.219Z,15.46
2018-06-18T02:29:52.543Z,15.43
2018-06-18T02:32:27.288Z,15.35
2018-06-18T02:35:02.130Z,15.38
2018-06-18T02:37:36.470Z,15.44
2018-06-18T02:40:11.291Z,15.46
2018-06-18T02:42:40.975Z,15.49
2018-06-18T02:45:10.611Z,15.49
2018-06-18T02:47:40.005Z,15.48
2018-06-18T02:50:09.742Z,15.48
2018-06-18T02:52:39.460Z,15.35
2018-06-18T02:55:09.034Z,15.21
2018-06-18T02:57:38.714Z,15.35
2018-06-18T03:00:08.362Z,15.27
2018-06-18T03:02:37.757Z,15.25
2018-06-18T03:05:07.287Z,15.25
2018-06-18T03:07:36.998Z,15.28
2018-06-18T03:10:06.579Z,15.28
2018-06-18T03:12:36.223Z,15.12
2018-06-18T03:15:05.794Z,15.17
2018-06-18T03:17:35.207Z,15.23
2018-06-18T03:20:09.691Z,15.27
2018-06-18T03:22:44.541Z,15.21
2018-06-18T03:25:18.737Z,15.17
2018-06-18T03:27:53.559Z,15.19
2018-06-18T03:30:23.408Z,15.03
2018-06-18T03:32:53.037Z,15.16
2018-06-18T03:35:22.434Z,15.23
2018-06-18T03:37:52.674Z,15.25
2018-06-18T03:40:22.030Z,15.28
2018-06-18T03:42:51.854Z,15.29
2018-06-18T03:45:28.211Z,15.15
2018-06-18T03:47:59.453Z,15.14
2018-06-18T03:50:29.093Z,15.09
2018-06-18T03:52:58.693Z,15.13
2018-06-18T03:55:34.794Z,15.23
2018-06-18T03:58:08.512Z,15.17
2018-06-18T04:00:49.624Z,15.16
2018-06-18T04:03:24.138Z,15.19
2018-06-18T04:05:58.825Z,15.19
2018-06-18T04:08:28.796Z,15.20
2018-06-18T04:11:03.624Z,15.20
2018-06-18T04:13:33.292Z,15.18
2018-06-18T04:16:02.813Z,15.19
2018-06-18T04:18:32.281Z,15.19
2018-06-18T04:21:02.042Z,15.24
2018-06-18T04:23:31.906Z,15.28
2018-06-18T04:26:01.589Z,15.27
2018-06-18T04:28:31.159Z,15.30
2018-06-18T04:31:00.966Z,15.40
2018-06-18T04:33:30.769Z,15.44
2018-06-18T04:36:00.824Z,15.46
2018-06-18T04:38:30.373Z,15.42
2018-06-18T04:40:59.585Z,15.43
2018-06-18T04:43:34.399Z,15.39
2018-06-18T04:46:09.381Z,15.32
2018-06-18T04:48:43.856Z,15.36
2018-06-18T04:51:13.585Z,15.32
2018-06-18T04:53:43.161Z,15.32
2018-06-18T04:56:12.792Z,15.34
2018-06-18T04:58:42.270Z,15.37
2018-06-18T05:01:26.356Z,15.38
2018-06-18T05:03:55.940Z,15.43
2018-06-18T05:06:26.321Z,15.52
2018-06-18T05:10:07.801Z,15.68
2018-06-18T05:12:37.575Z,15.69
2018-06-18T05:15:07.485Z,15.70
2018-06-18T05:17:37.008Z,15.77
2018-06-18T05:20:06.627Z,15.82
2018-06-18T05:22:36.336Z,15.87
2018-06-18T05:25:06.079Z,15.92
2018-06-18T05:27:36.156Z,15.97
2018-06-18T05:30:12.004Z,15.99
2018-06-18T05:32:41.980Z,15.87
2018-06-18T05:35:12.568Z,15.93
2018-06-18T05:38:04.248Z,15.96
2018-06-18T05:40:34.082Z,15.87
2018-06-18T05:43:03.759Z,15.81
2018-06-18T05:45:33.391Z,15.69
2018-06-18T05:48:03.309Z,15.78
2018-06-18T05:50:32.688Z,15.85
2018-06-18T05:53:02.643Z,15.86
2018-06-18T05:55:32.756Z,15.87
2018-06-18T05:58:02.210Z,16.05
2018-06-18T06:00:31.497Z,16.12
2018-06-18T06:03:01.568Z,16.13
2018-06-18T06:05:31.018Z,16.14
2018-06-18T06:08:00.425Z,16.11
2018-06-18T06:10:30.292Z,16.11
2018-06-18T06:12:59.921Z,16.11
2018-06-18T06:15:29.674Z,16.16
2018-06-18T06:17:59.373Z,16.29
2018-06-18T06:20:28.846Z,16.34
2018-06-18T06:22:58.602Z,16.33
2018-06-18T06:25:28.389Z,16.26
2018-06-18T06:27:57.891Z,16.06
2018-06-18T06:30:27.602Z,16.09
2018-06-18T06:32:57.335Z,16.18
2018-06-18T06:35:31.025Z,16.12
2018-06-18T06:38:00.785Z,16.09
2018-06-18T06:40:30.304Z,16.11
2018-06-18T06:42:59.843Z,16.28
2018-06-18T06:45:29.498Z,16.34
2018-06-18T06:47:59.360Z,16.48
2018-06-18T06:50:29.172Z,16.54
2018-06-18T06:52:58.683Z,16.63
2018-06-18T06:55:28.454Z,16.54
2018-06-18T06:57:58.347Z,16.41
2018-06-18T07:00:28.222Z,16.30
2018-06-18T07:02:58.089Z,16.30
2018-06-18T07:05:27.897Z,16.45
2018-06-18T07:07:57.460Z,16.00
2018-06-18T07:10:27.288Z,16.48
2018-06-18T07:12:57.456Z,16.43
2018-06-18T07:15:27.194Z,16.61
2018-06-18T07:17:56.753Z,16.59
2018-06-18T07:20:26.401Z,16.65
2018-06-18T07:22:56.173Z,16.86
2018-06-18T07:25:25.637Z,17.12
2018-06-18T07:27:55.446Z,17.25
2018-06-18T07:30:25.232Z,17.22
2018-06-18T07:32:54.692Z,18.27
2018-06-18T07:35:24.323Z,18.37
2018-06-18T07:37:54.266Z,19.38
2018-06-18T07:40:23.896Z,19.13
2018-06-18T07:42:53.745Z,19.60
2018-06-18T07:45:23.293Z,20.01
2018-06-18T07:47:52.732Z,21.12
2018-06-18T07:50:22.939Z,20.97
2018-06-18T07:52:52.635Z,20.99
2018-06-18T07:55:22.121Z,20.83
2018-06-18T07:57:51.753Z,19.81
2018-06-18T08:00:21.514Z,19.45
2018-06-18T08:02:51.096Z,19.41
2018-06-18T08:05:20.925Z,19.36
2018-06-18T08:07:50.569Z,19.33
2018-06-18T08:10:20.139Z,19.28
2018-06-18T08:12:49.959Z,19.34
2018-06-18T08:15:19.654Z,18.73
2018-06-18T08:17:49.161Z,18.68
2018-06-18T08:20:18.823Z,18.64
2018-06-18T08:22:48.482Z,18.98
2018-06-18T08:25:18.003Z,19.06
2018-06-18T08:27:47.622Z,19.05
2018-06-18T08:30:17.509Z,19.28
2018-06-18T08:32:46.985Z,19.33
2018-06-18T08:35:16.588Z,19.34
2018-06-18T08:37:46.206Z,19.03
2018-06-18T08:40:16.046Z,19.06
2018-06-18T08:42:45.441Z,19.04
2018-06-18T08:45:15.067Z,18.86
2018-06-18T08:47:44.721Z,18.42
2018-06-18T08:50:19.230Z,18.37
2018-06-18T08:52:53.972Z,18.46
2018-06-18T08:55:28.856Z,18.64
2018-06-18T08:58:03.606Z,18.87
2018-06-18T09:00:38.306Z,18.97
2018-06-18T09:03:12.084Z,18.69
2018-06-18T09:05:47.747Z,18.77
2018-06-18T09:08:22.508Z,19.11
2018-06-18T09:10:52.725Z,19.28
2018-06-18T09:13:21.999Z,19.51
2018-06-18T09:15:51.459Z,19.07
2018-06-18T09:18:21.381Z,19.05
2018-06-18T09:20:50.889Z,18.90
2018-06-18T09:23:20.270Z,19.26
2018-06-18T09:25:55.043Z,19.35
2018-06-18T09:28:25.009Z,19.16
2018-06-18T09:30:56.750Z,19.30
2018-06-18T09:33:26.531Z,19.48
2018-06-18T09:35:56.354Z,19.52
2018-06-18T09:38:26.175Z,19.48
2018-06-18T09:40:56.232Z,19.49
2018-06-18T09:43:25.737Z,19.31
2018-06-18T09:45:55.514Z,19.47
2018-06-18T09:48:30.378Z,19.59
2018-06-18T09:51:04.844Z,19.51
2018-06-18T09:53:39.761Z,19.30
2018-06-18T09:56:14.533Z,19.05
2018-06-18T09:58:48.878Z,19.18
2018-06-18T10:01:23.861Z,19.00
2018-06-18T10:03:53.414Z,19.21
2018-06-18T10:06:24.163Z,19.05
2018-06-18T10:08:53.595Z,19.05
2018-06-18T10:11:23.358Z,19.05
2018-06-18T10:13:52.846Z,18.77
2018-06-18T10:16:22.240Z,18.85
2018-06-18T10:18:52.167Z,19.08
2018-06-18T10:21:21.690Z,18.99
2018-06-18T10:23:51.199Z,19.02
2018-06-18T10:26:21.074Z,19.16
2018-06-18T10:28:50.501Z,19.30
2018-06-18T10:31:20.022Z,19.16
2018-06-18T10:33:54.691Z,19.22
2018-06-18T10:36:29.195Z,19.35
2018-06-18T10:39:04.040Z,19.30
2018-06-18T10:41:38.760Z,19.54
2018-06-18T10:44:08.500Z,19.38
2018-06-18T10:46:38.215Z,19.63
2018-06-18T10:49:07.555Z,19.58
2018-06-18T10:51:37.295Z,18.87
2018-06-18T10:54:07.035Z,19.69
2018-06-18T10:56:36.711Z,19.73
2018-06-18T10:59:06.469Z,19.77
2018-06-18T11:01:35.990Z,19.85
2018-06-18T11:04:05.957Z,19.84
2018-06-18T11:06:37.753Z,19.88
2018-06-18T11:09:09.533Z,19.78
2018-06-18T11:11:39.462Z,19.72
2018-06-18T11:14:08.948Z,19.90
2018-06-18T11:16:38.681Z,20.00
2018-06-18T11:19:12.991Z,19.96
2018-06-18T11:22:18.870Z,19.72
2018-06-18T11:24:53.422Z,19.85
2018-06-18T11:27:23.468Z,19.97
2018-06-18T11:29:52.976Z,19.75
2018-06-18T11:32:22.659Z,19.79
2018-06-18T11:34:52.308Z,19.76
2018-06-18T11:37:21.881Z,19.65
2018-06-18T11:39:51.511Z,19.40
2018-06-18T11:42:21.495Z,19.43
2018-06-18T11:44:50.914Z,19.23
2018-06-18T11:47:20.601Z,19.26
2018-06-18T11:49:50.247Z,19.19
2018-06-18T11:52:19.598Z,19.14
2018-06-18T11:54:49.049Z,19.07
2018-06-18T11:57:18.949Z,19.10
2018-06-18T11:59:53.527Z,19.04
2018-06-18T12:02:28.078Z,19.14
2018-06-18T12:05:02.529Z,19.08
2018-06-18T12:07:37.146Z,19.19
2018-06-18T12:10:07.415Z,19.41
2018-06-18T12:12:37.050Z,19.30
2018-06-18T12:15:06.582Z,19.47
2018-06-18T12:17:36.653Z,19.46
2018-06-18T12:20:06.673Z,19.53
2018-06-18T12:22:36.378Z,19.62
2018-06-18T12:25:06.040Z,19.57
2018-06-18T12:27:36.454Z,19.62
2018-06-18T12:30:06.465Z,19.52
2018-06-18T12:32:37.025Z,19.54
2018-06-18T12:35:06.895Z,19.58
2018-06-18T12:37:36.380Z,19.41
2018-06-18T12:40:05.835Z,19.37
2018-06-18T12:42:35.791Z,19.33
2018-06-18T12:45:10.889Z,19.43
2018-06-18T12:47:45.623Z,19.41
2018-06-18T12:50:20.205Z,19.37
2018-06-18T12:52:54.461Z,19.34
2018-06-18T12:55:29.163Z,19.36
2018-06-18T12:57:59.220Z,19.33
2018-06-18T13:00:29.084Z,19.42
2018-06-18T13:03:11.095Z,19.42
2018-06-18T13:05:40.982Z,19.36
2018-06-18T13:08:10.536Z,19.23
2018-06-18T13:10:40.286Z,19.07
2018-06-18T13:13:09.869Z,18.81
2018-06-18T13:15:39.464Z,18.79
2018-06-18T13:18:09.263Z,18.89
2018-06-18T13:20:38.943Z,18.90
2018-06-18T13:23:08.648Z,18.91
2018-06-18T13:25:38.430Z,18.98
2018-06-18T13:28:13.185Z,19.05
2018-06-18T13:30:43.903Z,18.93
2018-06-18T13:33:13.538Z,18.89
2018-06-18T13:35:43.144Z,18.67
2018-06-18T13:38:17.648Z,18.52
2018-06-18T13:42:56.662Z,18.49
2018-06-18T13:45:31.067Z,18.39
2018-06-18T13:48:05.935Z,18.45
2018-06-18T13:50:36.337Z,18.50
2018-06-18T13:53:06.068Z,18.60
2018-06-18T13:55:35.714Z,18.64
2018-06-18T13:58:06.213Z,18.63
2018-06-18T14:00:35.699Z,18.76
2018-06-18T14:03:05.462Z,18.65
2018-06-18T14:05:35.236Z,18.59
2018-06-18T14:08:04.949Z,18.59
2018-06-18T14:10:34.754Z,18.45
2018-06-18T14:13:04.613Z,18.37
2018-06-18T14:15:34.206Z,18.34
2018-06-18T14:18:04.216Z,18.32
2018-06-18T14:20:33.559Z,18.24
2018-06-18T14:23:03.082Z,18.37
2018-06-18T14:25:33.107Z,18.30
2018-06-18T14:28:02.745Z,18.26
2018-06-18T14:30:37.269Z,18.34
2018-06-18T14:33:11.988Z,18.44
2018-06-18T14:35:46.688Z,18.41
2018-06-18T14:38:21.213Z,18.42
2018-06-18T14:40:50.973Z,18.42
2018-06-18T14:43:20.743Z,18.43
2018-06-18T14:45:50.532Z,18.45
2018-06-18T14:48:20.491Z,18.32
2018-06-18T14:50:50.389Z,18.41
2018-06-18T14:53:20.481Z,18.55
2018-06-18T14:56:28.365Z,18.55
2018-06-18T14:59:03.537Z,18.50
2018-06-18T15:01:33.410Z,18.41
2018-06-18T15:04:03.426Z,18.35
2018-06-18T15:06:33.051Z,18.35
2018-06-18T15:09:02.921Z,18.24
2018-06-18T15:11:33.108Z,18.15
2018-06-18T15:14:03.025Z,18.05
2018-06-18T15:16:32.788Z,18.13
2018-06-18T15:19:02.932Z,18.18
2018-06-18T15:21:34.997Z,18.15
2018-06-18T15:24:08.173Z,18.00
2018-06-18T15:26:38.054Z,18.01
2018-06-18T15:29:07.527Z,18.04
2018-06-18T15:31:36.997Z,18.02
2018-06-18T15:34:06.835Z,17.98
2018-06-18T15:36:36.177Z,17.95
2018-06-18T15:39:08.533Z,17.94
2018-06-18T15:41:37.761Z,17.85
2018-06-18T15:44:07.500Z,17.84
2018-06-18T15:46:36.967Z,17.80
2018-06-18T15:49:06.753Z,17.74
2018-06-18T15:51:36.192Z,17.70
2018-06-18T15:54:05.675Z,17.76
2018-06-18T15:56:35.685Z,17.80
2018-06-18T15:59:05.451Z,17.83
2018-06-18T16:01:35.172Z,17.81
2018-06-18T16:04:05.242Z,17.81
2018-06-18T16:06:34.650Z,17.79
2018-06-18T16:09:04.412Z,17.76
2018-06-18T16:11:34.227Z,17.74
2018-06-18T16:14:03.844Z,17.73
2018-06-18T16:16:34.036Z,17.60
2018-06-18T16:19:03.849Z,17.55
2018-06-18T16:21:33.795Z,17.58
2018-06-18T16:24:04.208Z,17.49
2018-06-18T16:26:33.694Z,17.42
2018-06-18T16:29:03.186Z,17.49
2018-06-18T16:31:33.692Z,17.46
2018-06-18T16:34:03.379Z,17.47
2018-06-18T16:36:32.896Z,17.48
2018-06-18T16:39:02.344Z,17.48
2018-06-18T16:41:32.061Z,17.49
2018-06-18T16:44:01.860Z,17.56
2018-06-18T16:46:31.847Z,17.53
2018-06-18T16:49:01.540Z,17.59
2018-06-18T16:51:31.246Z,17.64
2018-06-18T16:54:00.912Z,17.63
2018-06-18T16:56:30.587Z,17.69
2018-06-18T16:59:00.261Z,17.69
2018-06-18T17:01:29.903Z,17.68
2018-06-18T17:03:59.530Z,17.77
2018-06-18T17:06:29.160Z,17.78
2018-06-18T17:08:58.806Z,17.76
2018-06-18T17:11:28.602Z,17.82
2018-06-18T17:13:58.167Z,17.88
2018-06-18T17:16:27.705Z,17.91
2018-06-18T17:18:57.501Z,17.94
2018-06-18T17:21:27.247Z,17.94
2018-06-18T17:23:56.889Z,17.93
2018-06-18T17:26:26.558Z,17.96
2018-06-18T17:28:56.129Z,17.95
2018-06-18T17:31:25.826Z,18.01
2018-06-18T17:33:55.628Z,17.98
2018-06-18T17:36:25.297Z,17.96
2018-06-18T17:38:55.209Z,17.95
2018-06-18T17:41:24.725Z,17.96
2018-06-18T17:43:54.547Z,17.93
2018-06-18T17:46:24.439Z,17.90
2018-06-18T17:48:54.498Z,17.89
2018-06-18T17:51:24.293Z,17.87
2018-06-18T17:53:54.262Z,17.86
2018-06-18T17:56:24.353Z,17.82
2018-06-18T17:58:54.580Z,17.85
2018-06-18T18:01:24.423Z,17.88
2018-06-18T18:03:54.120Z,17.91
2018-06-18T18:06:24.149Z,17.88
2018-06-18T18:08:53.702Z,17.91
2018-06-18T18:11:23.430Z,17.91
2018-06-18T18:13:53.885Z,17.93
2018-06-18T18:16:24.490Z,17.96
2018-06-18T18:18:54.122Z,17.83
2018-06-18T18:21:23.819Z,17.74
2018-06-18T18:23:53.109Z,17.57
2018-06-18T18:26:23.589Z,17.52
2018-06-18T18:28:53.516Z,17.48
2018-06-18T18:31:23.283Z,17.42
2018-06-18T18:33:53.216Z,17.36
2018-06-18T18:36:22.907Z,17.31
2018-06-18T18:38:52.674Z,17.23
2018-06-18T18:41:22.288Z,17.21
2018-06-18T18:43:52.065Z,17.19
2018-06-18T18:46:21.964Z,17.09
2018-06-18T18:48:51.763Z,17.04
2018-06-18T18:51:21.812Z,17.05
2018-06-18T18:53:51.543Z,17.02
2018-06-18T18:56:31.856Z,16.96
2018-06-18T18:59:22.665Z,16.93
2018-06-18T19:01:52.266Z,16.88
2018-06-18T19:04:26.476Z,16.91
2018-06-18T19:06:56.444Z,16.92
2018-06-18T19:09:29.028Z,16.96
2018-06-18T19:11:59.104Z,16.99
2018-06-18T19:14:29.464Z,17.03
2018-06-18T19:16:59.227Z,17.11
2018-06-18T19:19:32.686Z,17.18
2018-06-18T19:22:02.123Z,17.11
2018-06-18T19:24:32.257Z,17.07
2018-06-18T19:27:02.214Z,17.00
2018-06-18T19:29:31.815Z,16.99
2018-06-18T19:32:01.570Z,17.09
2018-06-18T19:34:32.109Z,17.06
2018-06-18T19:37:02.048Z,17.05
2018-06-18T19:39:34.059Z,17.03
2018-06-18T19:42:03.918Z,16.28
2018-06-18T19:44:33.921Z,17.00
2018-06-18T19:48:13.312Z,16.98
2018-06-18T19:50:43.500Z,16.92
2018-06-18T19:53:13.101Z,16.94
2018-06-18T19:55:43.149Z,16.95
2018-06-18T19:58:12.697Z,17.00
2018-06-18T20:00:45.626Z,16.99
2018-06-18T20:03:15.352Z,16.95
2018-06-18T20:05:45.101Z,17.03
2018-06-18T20:08:18.971Z,16.98
2018-06-18T20:10:48.881Z,16.91
2018-06-18T20:13:18.585Z,16.91
2018-06-18T20:15:48.458Z,16.91
2018-06-18T20:18:18.049Z,16.91
2018-06-18T20:20:47.809Z,16.87
2018-06-18T20:23:21.766Z,16.83
2018-06-18T20:25:58.016Z,16.81
2018-06-18T20:28:28.389Z,16.75
2018-06-18T20:30:58.165Z,16.75
2018-06-18T20:33:28.520Z,16.76
2018-06-18T20:36:02.183Z,16.79
2018-06-18T20:38:32.101Z,16.76
2018-06-18T20:41:02.022Z,16.70
2018-06-18T20:43:36.680Z,16.67
2018-06-18T20:46:06.629Z,16.59
2018-06-18T20:48:36.392Z,16.74
2018-06-18T20:51:06.358Z,16.74
2018-06-18T20:53:36.298Z,16.77
2018-06-18T20:56:06.438Z,16.80
2018-06-18T20:58:36.130Z,16.69
2018-06-18T21:01:05.953Z,16.69
2018-06-18T21:03:35.557Z,16.69
2018-06-18T21:06:05.506Z,16.66
2018-06-18T21:08:35.511Z,16.69
2018-06-18T21:11:05.533Z,16.68
2018-06-18T21:13:35.002Z,16.66
2018-06-18T21:16:05.048Z,16.70
2018-06-18T21:18:35.116Z,16.70
2018-06-18T21:21:05.076Z,16.65
2018-06-18T21:23:34.638Z,16.67
2018-06-18T21:26:04.837Z,16.69
2018-06-18T21:28:34.658Z,16.67
2018-06-18T21:31:04.222Z,16.60
2018-06-18T21:33:33.826Z,16.54
2018-06-18T21:36:03.759Z,16.54
2018-06-18T21:38:33.307Z,16.53
2018-06-18T21:41:03.080Z,16.52
2018-06-18T21:43:32.778Z,16.43
2018-06-18T21:46:02.286Z,16.44
2018-06-18T21:48:31.924Z,16.38
2018-06-18T21:51:01.595Z,16.47
2018-06-18T21:53:31.354Z,16.45
2018-06-18T21:56:00.896Z,16.36
2018-06-18T21:58:30.642Z,16.39
2018-06-18T22:01:00.185Z,16.39
2018-06-18T22:03:29.776Z,16.40
2018-06-18T22:05:59.445Z,16.33
2018-06-18T22:08:30.141Z,16.30
2018-06-18T22:11:00.138Z,16.22
2018-06-18T22:13:29.735Z,16.19
2018-06-18T22:15:59.322Z,16.13
2018-06-18T22:18:29.392Z,16.08
2018-06-18T22:20:58.841Z,16.08
2018-06-18T22:23:28.523Z,16.11
2018-06-18T22:25:58.231Z,16.11
2018-06-18T22:28:31.982Z,15.98
2018-06-18T22:31:01.695Z,16.05
2018-06-18T22:33:31.449Z,15.98
2018-06-18T22:36:01.036Z,15.94
2018-06-18T22:38:30.695Z,16.06
2018-06-18T22:41:00.402Z,16.03
2018-06-18T22:43:30.163Z,15.91
2018-06-18T22:45:59.773Z,15.99
2018-06-18T22:48:29.178Z,16.00
2018-06-18T22:50:58.781Z,16.09
2018-06-18T22:53:28.439Z,16.03
2018-06-18T22:55:57.720Z,15.94
2018-06-18T22:58:27.715Z,15.97
2018-06-18T23:00:58.798Z,15.98
2018-06-18T23:03:28.428Z,15.96
2018-06-18T23:05:58.052Z,15.83
2018-06-18T23:08:27.917Z,15.85
2018-06-18T23:10:57.492Z,15.78
2018-06-18T23:13:31.215Z,15.78
2018-06-18T23:16:01.119Z,15.71
2018-06-18T23:18:30.682Z,15.73
2018-06-18T23:21:00.175Z,15.71
2018-06-18T23:23:29.905Z,15.60
2018-06-18T23:25:59.600Z,15.60
2018-06-18T23:28:48.580Z,15.63
2018-06-18T23:31:18.319Z,15.62
2018-06-18T23:33:48.250Z,15.61
2018-06-18T23:36:17.975Z,15.60
2018-06-18T23:38:47.612Z,15.34
2018-06-18T23:41:17.463Z,15.33
2018-06-18T23:43:47.435Z,15.33
2018-06-18T23:46:17.023Z,15.31
2018-06-18T23:48:46.766Z,15.18
2018-06-18T23:51:16.266Z,15.20
2018-06-18T23:53:45.687Z,15.21
2018-06-18T23:56:15.383Z,15.24
2018-06-18T23:58:45.250Z,15.21
